Weather observations for the past three days for
Payson Airport
Imperial (Metric)
Date Time (mst) Wind (mph) Vis. (mi.) Weather Sky Cond. Temperature (ºF) Relative Humidity Wind Chill (°F) Heat Index (°F) Pressure Precipitation (in)
Air Dwpt 6 hour altimeter (in) sea level (mb) 1 hr 3 hr 6 hr
Max. Min.
06 13:15 SW 12 G 17 10.00 Fair CLR 64.4 28.4 26% 30.08 0.0
06 12:55 W 9 G 18 10.00 Fair CLR 64.4 28.4 26% 30.09 0.0
06 12:35 W 9 G 17 10.00 Fair CLR 64.4 28.4 26% 30.09 0.0
06 12:15 W 9 10.00 Fair CLR 64.4 28.4 26% 30.09 0.0
06 11:55 Vrbl 7 G 16 10.00 Fair CLR 62.6 28.4 27% 30.1 0.0
06 11:35 SW 8 10.00 Fair CLR 60.8 28.4 29% 30.1 0.0
06 11:15 Vrbl 6 10.00 Fair CLR 60.8 28.4 29% 30.1 0.0
06 10:55 W 9 10.00 Fair CLR 60.8 28.4 29% 30.11 0.0
06 10:35 W 10 10.00 Fair CLR 59 30.2 34% 30.11 0.0
06 10:15 NW 9 10.00 Fair CLR 59 30.2 34% 30.11 0.0
06 09:55 W 8 10.00 Fair CLR 57.2 30.2 36% 30.11 0.0
06 09:35 SW 9 10.00 Fair CLR 57.2 30.2 36% 30.1 0.0
06 09:15 Vrbl 7 10.00 Fair CLR 55.4 28.4 36% 30.1 0.0
06 08:55 Vrbl 5 10.00 Fair CLR 55.4 30.2 38% 30.1 0.0
06 08:35 Vrbl 3 10.00 Fair CLR 55.4 32 41% 30.1 0.0
06 08:15 Vrbl 2 10.00 Fair CLR 53.6 32 44% 30.1 0.0
06 07:55 Vrbl 2 10.00 Fair CLR 51.8 30.2 44% 30.09 0.0
06 07:35 Vrbl 1 10.00 Fair CLR 51.8 32 47% 30.09 0.0
06 07:15 N 3 10.00 Fair CLR 48.2 33.8 58% 30.09 0.0
06 06:55 NE 2 10.00 Fair CLR 46.4 33.8 62% 30.09 0.0
06 06:35 N 2 10.00 Fair CLR 41 32 70% 30.09 0.0
06 06:15 Vrbl 2 10.00 Fair CLR 41 32 70% 30.08 0.0
06 05:55 N 2 10.00 Fair CLR 39.2 32 75% 30.07 0.0
06 05:35 Vrbl 1 10.00 Fair CLR 37.4 32 81% 30.06 0.0
06 05:15 Vrbl 3 10.00 Fair CLR 39.2 30.2 70% 30.05 0.0
06 04:55 E 3 10.00 Fair CLR 42.8 32 66% 30.05 0.0
06 04:35 NE 2 10.00 Fair CLR 39.2 32 75% 30.05 0.0
06 04:15 Vrbl 2 10.00 Fair CLR 39.2 32 75% 30.05 0.0
06 03:55 N 3 10.00 Fair CLR 39.2 32 75% 30.05 0.0
06 03:35 NW 2 10.00 Fair CLR 39.2 32 75% 30.04 0.0
06 03:15 N 3 10.00 Fair CLR 39.2 32 75% 30.04 0.0
06 02:55 N 2 10.00 Fair CLR 42.8 30.2 61% 30.04 0.0
06 02:35 NE 3 10.00 Fair CLR 41 32 70% 30.04 0.0
06 02:15 N 2 10.00 Fair CLR 41 32 70% 30.03 0.0
06 01:55 N 2 10.00 Fair CLR 41 32 70% 30.03 0.0
06 01:35 N 2 10.00 Fair CLR 41 32 70% 30.03 0.0
06 01:15 N 2 10.00 Fair CLR 42.8 32 66% 30.03 0.0
06 00:55 N 2 10.00 Fair CLR 42.8 32 66% 30.03 0.0
06 00:35 NW 2 10.00 Fair CLR 42.8 32 66% 30.03 0.0
06 00:15 N 2 10.00 Fair CLR 44.6 32 61% 30.03 0.0
05 23:55 N 2 10.00 Fair CLR 44.6 30.2 57% 30.03 0.0
05 23:35 N 2 10.00 Fair CLR 44.6 32 61% 30.03 0.0
05 22:55 Vrbl 1 10.00 Fair CLR 48.2 30.2 50% 30.02 0.0
05 22:35 W 3 10.00 Fair CLR 48.2 30.2 50% 30.02 0.0
05 22:15 W 5 10.00 Fair CLR 50 30.2 47% 49 30.02 0.0
05 21:55 W 5 10.00 Fair CLR 50 30.2 47% 49 30.02 0.0
05 21:35 W 5 10.00 Fair CLR 50 30.2 47% 49 30.01 0.0
05 21:15 SW 3 10.00 A Few Clouds FEW060 50 30.2 47% 30.01 0.0
05 20:55 S 3 10.00 Partly Cloudy SCT060 50 30.2 47% 30 0.0
05 20:35 Vrbl 2 10.00 Fair CLR 50 30.2 47% 29.99 0.0
05 20:15 SW 3 10.00 Fair CLR 50 30.2 47% 29.99 0.0
05 19:55 SW 5 10.00 Fair CLR 51.8 28.4 41% 29.98 0.0
05 19:35 SW 9 10.00 Fair CLR 51.8 28.4 41% 29.97 0.0
05 19:15 SW 8 10.00 Fair CLR 53.6 28.4 38% 29.96 0.0
05 18:55 SW 9 G 16 10.00 Fair CLR 53.6 28.4 38% 29.95 0.0
05 18:35 SW 13 G 17 10.00 Fair CLR 55.4 26.6 33% 29.95 0.0
05 18:15 SW 13 G 18 10.00 A Few Clouds FEW080 55.4 26.6 33% 29.94 0.0
05 17:55 SW 13 G 17 10.00 Partly Cloudy SCT080 57.2 26.6 31% 29.93 0.0
05 17:35 SW 14 G 22 10.00 Mostly Cloudy FEW065 BKN080 59 26.6 29% 29.93 0.0
05 17:15 SW 17 G 24 10.00 Partly Cloudy FEW065 SCT080 SCT090 57.2 26.6 31% 29.92 0.0
05 16:55 SW 12 G 24 10.00 Mostly Cloudy BKN060 BKN080 57.2 24.8 29% 29.92 0.0
05 16:35 W 14 G 18 10.00 Overcast OVC060 59 30.2 34% 29.92 0.0
05 16:15 SW 9 G 21 10.00 Mostly Cloudy BKN060 BKN070 BKN100 57.2 30.2 36% 29.91 0.0
05 15:55 SW 9 G 16 10.00 Fair CLR 59 30.2 34% 29.91 0.0
05 15:35 W 10 G 16 10.00 Partly Cloudy FEW049 FEW070 SCT095 59 33.8 39% 29.91 0.0
05 15:15 SW 9 G 17 10.00 Mostly Cloudy SCT050 SCT075 BKN095 57.2 33.8 41% 29.92 0.0
05 14:55 SW 10 G 21 10.00 Mostly Cloudy SCT050 BKN095 57.2 33.8 41% 29.92 0.0
05 14:35 SW 14 G 17 10.00 Fair CLR 59 33.8 39% 29.93 0.0
05 14:15 W 10 G 21 10.00 A Few Clouds FEW075 FEW090 59 33.8 39% 29.93 0.0
05 13:55 W 15 G 20 10.00 Partly Cloudy FEW070 SCT090 57.2 37.4 48% 29.94 0.0
05 13:35 SW 13 G 21 10.00 Mostly Cloudy SCT045 SCT065 BKN070 55.4 39.2 55% 29.94 0.0
05 13:15 SW 13 G 22 10.00 Thunderstorm in Vicinity BKN037 BKN050 BKN075 57.2 41 55% 29.94 0.0
05 12:55 SW 9 G 18 10.00 Overcast BKN035 BKN043 OVC070 53.6 42.8 67% 29.95 0.0
05 12:35 W 9 G 18 10.00 Overcast SCT030 BKN040 OVC070 51.8 42.8 72% 29.96 0.0
05 12:15 W 13 10.00 Thunderstorm SCT013 BKN020 OVC036 51.8 46.4 82% 29.96 0.0
05 11:55 SW 9 10.00 Mostly Cloudy SCT017 SCT023 BKN042 53.6 44.6 72% 29.96 0.0
05 11:35 SW 13 G 20 10.00 Light Rain SCT018 SCT050 BKN070 55.4 46.4 72% 29.96 0.0
05 11:15 S 9 G 17 10.00 Mostly Cloudy SCT049 BKN060 BKN070 53.6 48.2 82% 29.96 0.0
05 10:55 S 9 G 18 10.00 Mostly Cloudy SCT047 BKN060 BKN070 51.8 48.2 88% 29.96 0.0
05 10:35 S 12 G 18 10.00 Light Drizzle SCT006 SCT024 BKN034 50 48.2 94% 46 29.96 0.0
05 10:15 S 10 10.00 Overcast SCT006 BKN019 OVC050 50 50 100% 46 29.96 0.0
05 09:55 Vrbl 7 10.00 Light Rain BKN006 BKN014 BKN045 50 48.2 94% 48 29.96 0.0 0.02
05 09:35 Vrbl 6 9.00 Light Drizzle BKN006 BKN022 BKN055 48.2 48.2 100% 46 29.96 0.0
05 09:15 SW 6 4.00 Light Rain Fog/Mist SCT006 BKN018 OVC030 48.2 48.2 100% 46 29.97 0.0
05 08:55 SW 6 1.75 Light Rain Fog/Mist SCT006 SCT010 OVC018 48.2 46.4 94% 46 29.96 0.0 0.03
05 08:35 SW 5 7.00 Light Rain Haze BKN018 BKN026 OVC034 50 42.8 76% 49 29.96 0.0
05 08:15 Vrbl 3 10.00 Overcast SCT020 BKN027 OVC033 50 44.6 82% 29.95 0.0
05 07:55 Vrbl 6 10.00 Overcast SCT010 BKN028 OVC033 48.2 44.6 87% 46 29.95 0.0
05 07:35 Vrbl 5 10.00 Overcast SCT010 SCT016 OVC028 48.2 44.6 87% 47 29.96 0.0
05 07:15 Vrbl 6 9.00 Light Drizzle BKN010 OVC016 48.2 44.6 87% 46 29.96 0.0
05 06:55 S 6 10.00 Overcast BKN012 BKN018 OVC035 48.2 44.6 87% 46 29.96 0.0
05 06:35 Vrbl 3 10.00 Overcast FEW009 BKN036 OVC044 48.2 44.6 87% 29.95 0.0
05 06:15 Vrbl 3 10.00 Overcast OVC044 48.2 44.6 87% 29.95 0.0
05 05:55 Vrbl 2 10.00 Overcast SCT028 OVC044 48.2 44.6 87% 29.94 0.0
05 05:35 S 3 10.00 Overcast SCT024 BKN030 OVC044 48.2 44.6 87% 29.94 0.0
05 05:15 Vrbl 2 10.00 Overcast BKN026 OVC032 48.2 44.6 87% 29.94 0.0
05 04:55 SE 2 10.00 Overcast BKN026 OVC046 48.2 44.6 87% 29.94 0.0
05 04:35 Vrbl 3 10.00 Light Rain BKN026 OVC048 48.2 44.6 87% 29.95 0.0
05 04:15 Vrbl 3 10.00 Overcast BKN026 BKN035 OVC055 48.2 42.8 82% 29.96 0.0
05 03:55 S 5 10.00 Overcast SCT036 BKN045 OVC055 48.2 42.8 82% 47 29.96 0.0
05 03:35 Vrbl 5 10.00 Overcast OVC036 50 42.8 76% 49 29.96 0.0
05 03:15 SW 6 10.00 Overcast BKN034 OVC041 50 41 71% 48 29.98 0.0
05 02:55 Vrbl 3 10.00 Overcast BKN034 OVC040 50 39.2 67% 29.97 0.0
05 02:35 SW 5 10.00 Overcast SCT033 BKN039 OVC090 50 39.2 67% 49 29.98 0.0
05 02:15 Vrbl 5 10.00 Mostly Cloudy SCT035 BKN046 BKN065 48.2 41 76% 47 29.97 0.0
05 01:55 S 9 G 17 5.00 Light Drizzle Haze FEW019 FEW027 OVC034 48.2 41 76% 45 29.98 0.0
05 01:35 S 14 G 23 10.00 Overcast BKN034 OVC044 51.8 33.8 50% 29.99 0.0
05 01:15 S 14 G 21 10.00 Overcast BKN034 OVC044 51.8 33.8 50% 29.99 0.0
05 00:55 S 12 G 20 10.00 Overcast BKN034 BKN043 OVC050 53.6 35.6 51% 29.99 0.0
05 00:35 S 9 G 20 10.00 Overcast SCT038 BKN046 OVC050 53.6 37.4 54% 30 0.0
05 00:15 S 8 10.00 Overcast SCT042 BKN048 OVC070 53.6 39.2 58% 30 0.0
04 23:55 S 9 10.00 Overcast BKN042 BKN050 OVC070 53.6 41 63% 29.99 0.0
04 23:35 S 7 G 16 10.00 Mostly Cloudy BKN044 BKN120 53.6 39.2 58% 29.99 0.0
04 23:15 S 10 10.00 Partly Cloudy FEW045 SCT120 55.4 39.2 55% 29.99 0.0
04 22:55 S 8 10.00 A Few Clouds FEW044 FEW110 55.4 37.4 51% 29.99 0.0
04 22:35 Vrbl 7 10.00 Partly Cloudy SCT042 SCT120 55.4 37.4 51% 30.01 0.0
04 22:15 SW 6 10.00 Mostly Cloudy FEW044 SCT090 BKN120 55.4 37.4 51% 30.02 0.0
04 21:55 S 9 G 20 10.00 Overcast OVC090 55.4 37.4 51% 30.02 0.0
04 21:35 SW 10 10.00 Mostly Cloudy BKN090 55.4 37.4 51% 30.01 0.0
04 21:15 S 6 10.00 Fair CLR 55.4 35.6 47% 30.01 0.0
04 20:55 Vrbl 5 10.00 Fair CLR 57.2 35.6 44% 30.01 0.0
04 20:35 SW 8 10.00 Fair CLR 57.2 35.6 44% 30 0.0
04 20:15 SW 9 10.00 Fair CLR 57.2 35.6 44% 30 0.0
04 19:55 SW 9 10.00 Fair CLR 57.2 33.8 41% 29.99 0.0
04 19:35 SW 9 G 17 10.00 Fair CLR 57.2 33.8 41% 29.99 0.0
04 19:15 SW 12 10.00 Fair CLR 59 32 36% 29.99 0.0
04 18:55 S 9 10.00 Fair CLR 59 30.2 34% 29.98 0.0
04 18:35 S 8 G 17 10.00 Fair CLR 59 28.4 31% 29.99 0.0
04 18:15 S 10 G 18 10.00 Fair CLR 60.8 28.4 29% 30 0.0
04 17:55 S 14 G 21 10.00 Fair CLR 62.6 30.2 30% 29.99 0.0
04 17:35 SW 8 G 17 10.00 Fair CLR 62.6 30.2 30% 29.99 0.0
04 17:15 SW 9 G 16 10.00 Fair CLR 62.6 30.2 30% 29.99 0.0
04 16:55 SW 9 G 16 10.00 Fair CLR 62.6 28.4 27% 30 0.0
04 16:35 SW 12 G 17 10.00 Fair CLR 62.6 28.4 27% 30 0.0
04 16:15 SW 14 G 18 10.00 Fair CLR 62.6 24.8 24% 30 0.0
04 15:55 S 16 G 22 10.00 Fair CLR 64.4 26.6 24% 30 0.0
04 15:35 SW 15 G 29 10.00 Fair CLR 64.4 26.6 24% 30 0.0
04 15:15 SW 13 G 21 10.00 Fair CLR 62.6 24.8 24% 30.01 0.0
04 14:55 SW 10 G 20 10.00 Fair CLR 62.6 30.2 30% 30.02 0.0
04 14:35 SW 9 G 21 10.00 Fair CLR 62.6 30.2 30% 30.03 0.0
04 14:15 SW 15 G 22 10.00 Fair CLR 64.4 32 30% 30.02 0.0
04 13:55 S 12 G 23 10.00 Fair CLR 64.4 33.8 32% 30.02 0.0
04 13:35 S 12 G 22 10.00 Fair CLR 64.4 33.8 32% 30.02 0.0
04 13:15 SW 13 G 22 10.00 Fair CLR 66.2 33.8 30% 30.02 0.0
04 12:55 S 13 G 24 10.00 Fair CLR 66.2 33.8 30% 30.02 0.0
04 12:35 S 13 G 20 10.00 Fair CLR 64.4 35.6 34% 30.02 0.0
04 12:15 S 13 G 21 10.00 Fair CLR 64.4 35.6 34% 30.02 0.0
04 11:55 SW 12 G 18 10.00 Fair CLR 62.6 37.4 39% 30.03 0.0
04 11:35 Vrbl 6 G 17 10.00 Fair CLR 62.6 37.4 39% 30.04 0.0
04 11:15 S 8 10.00 Fair CLR 62.6 41 45% 30.04 0.0
04 10:55 S 12 G 18 10.00 Fair CLR 60.8 39.2 45% 30.03 0.0
04 10:35 S 12 G 21 10.00 Fair CLR 60.8 39.2 45% 30.05 0.0
04 10:15 S 12 G 18 10.00 Fair CLR 59 41 51% 30.05 0.0
04 09:55 S 9 10.00 Fair CLR 59 39.2 48% 30.05 0.0
04 09:35 S 9 G 20 10.00 Fair CLR 59 39.2 48% 30.05 0.0
04 09:15 S 13 10.00 Fair CLR 59 39.2 48% 30.04 0.0
04 08:55 S 12 G 17 10.00 Fair CLR 59 41 51% 30.04 0.0
04 08:35 S 12 G 21 10.00 Fair CLR 59 41 51% 30.04 0.0
04 08:15 Vrbl 6 10.00 Fair CLR 59 41 51% 30.03 0.0
04 07:55 S 8 10.00 Fair CLR 57.2 41 55% 30.03 0.0
04 07:35 S 7 10.00 Fair CLR 57.2 41 55% 30.03 0.0
04 07:15 S 7 10.00 Fair CLR 57.2 41 55% 30.03 0.0
04 06:55 Vrbl 5 10.00 Fair CLR 55.4 41 59% 30.03 0.0
04 06:35 S 7 10.00 Fair CLR 55.4 41 59% 30.03 0.0
04 06:15 Vrbl 6 10.00 Fair CLR 55.4 41 59% 30.03 0.0
04 05:55 Vrbl 5 10.00 Fair CLR 55.4 41 59% 30.02 0.0
04 05:35 Vrbl 7 G 16 10.00 Fair CLR 55.4 41 59% 30 0.0
04 05:15 Vrbl 6 10.00 Fair CLR 55.4 39.2 55% 30 0.0
04 04:55 Vrbl 5 10.00 Fair CLR 55.4 39.2 55% 30 0.0
04 04:35 SW 3 10.00 Fair CLR 55.4 39.2 55% 30.02 0.0
04 04:15 Vrbl 6 10.00 Fair CLR 55.4 39.2 55% 30.01 0.0
04 03:55 S 6 10.00 Fair CLR 57.2 41 55% 30.02 0.0
04 03:35 SW 3 10.00 Fair CLR 57.2 39.2 51% 30.03 0.0
04 03:15 SW 7 10.00 Fair CLR 57.2 39.2 51% 30.02 0.0
04 02:55 Vrbl 7 10.00 Fair CLR 57.2 39.2 51% 30.03 0.0
04 02:35 SW 9 G 16 10.00 Fair CLR 57.2 37.4 48% 30.01 0.0
04 02:15 SW 9 10.00 Fair CLR 57.2 35.6 44% 30.01 0.0
04 01:55 Vrbl 6 10.00 Fair CLR 59 33.8 39% 30 0.0
04 01:35 Vrbl 6 10.00 Fair CLR 59 32 36% 30.01 0.0
04 01:15 Vrbl 3 10.00 Fair CLR 59 32 36% 30.02 0.0
04 00:55 S 6 10.00 Fair CLR 59 32 36% 30.02 0.0
04 00:35 Vrbl 6 10.00 Fair CLR 59 32 36% 30.02 0.0
04 00:15 SW 5 10.00 Fair CLR 59 30.2 34% 30.02 0.0
03 23:55 Vrbl 3 10.00 Fair CLR 60.8 28.4 29% 30.02 0.0
03 23:35 S 7 10.00 Fair CLR 60.8 28.4 29% 30.02 0.0
03 23:15 S 6 10.00 Fair CLR 60.8 26.6 27% 30.02 0.0
03 22:55 Vrbl 2 10.00 Fair CLR 62.6 28.4 27% 30.02 0.0
03 22:35 Vrbl 3 10.00 Fair CLR 62.6 26.6 25% 30.02 0.0
03 22:15 SW 6 G 16 10.00 Fair CLR 64.4 26.6 24% 30.02 0.0
03 21:55 Vrbl 2 10.00 Fair CLR 64.4 28.4 26% 30.03 0.0
03 21:35 Vrbl 6 10.00 Fair CLR 64.4 28.4 26% 30.02 0.0
03 21:15 SW 10 G 16 10.00 Fair CLR 66.2 28.4 24% 30 0.0
03 20:55 SW 14 G 20 10.00 Fair CLR 66.2 26.6 22% 29.99 0.0
03 20:35 SW 12 G 17 10.00 Fair CLR 68 26.6 21% 29.99 0.0
03 20:15 SW 14 G 22 10.00 Fair CLR 68 26.6 21% 29.98 0.0
03 19:55 SW 13 G 20 10.00 Fair CLR 69.8 26.6 20% 29.97 0.0
03 19:35 SW 13 G 16 10.00 A Few Clouds FEW100 69.8 28.4 21% 29.96 0.0
03 19:15 S 9 G 18 10.00 A Few Clouds FEW100 69.8 28.4 21% 29.95 0.0
03 18:55 S 14 G 22 10.00 Fair CLR 71.6 26.6 19% 29.95 0.0
03 18:35 SW 10 G 26 10.00 Fair CLR 71.6 26.6 19% 29.95 0.0
03 18:15 S 8 G 26 10.00 Fair CLR 73.4 26.6 17% 29.96 0.0
03 17:55 SW 14 G 29 10.00 Fair CLR 73.4 26.6 17% 29.96 0.0
03 17:35 SW 13 G 29 10.00 Fair CLR 75.2 26.6 16% 76 29.96 0.0
03 17:15 SW 15 G 28 10.00 Fair CLR 75.2 28.4 18% 76 29.97 0.0
03 16:55 SW 14 G 25 10.00 Fair CLR 75.2 26.6 16% 76 29.96 0.0
03 16:35 SW 17 G 29 10.00 Fair CLR 77 28.4 17% 77 29.96 0.0
03 16:15 S 12 G 28 10.00 A Few Clouds FEW090 77 33.8 21% 77 29.97 0.0
03 15:55 SW 14 G 28 10.00 A Few Clouds FEW090 77 28.4 17% 77 29.98 0.0
03 15:35 SW 15 G 22 10.00 A Few Clouds FEW100 77 30.2 18% 77 29.99 0.0
03 15:15 S 10 G 22 10.00 A Few Clouds FEW090 73.4 33.8 23% 30 0.0
03 14:55 S 12 G 18 10.00 Partly Cloudy SCT090 75.2 33.8 22% 76 30.01 0.0
03 14:15 S 14 G 25 10.00 A Few Clouds FEW090 77 32 19% 77 30.03 0.0
03 13:55 S 12 G 22 10.00 Fair CLR 75.2 32 21% 76 30.03 0.0
03 13:35 S 10 G 25 10.00 Fair CLR 75.2 35.6 24% 76 30.05 0.0
Date Time (mst) Wind (mph) Vis. (mi.) Weather Sky Cond. Air Dwpt Max. Min. Relative Humidity Wind Chill (°F) Heat Index (°F) altimeter (in) sea level (mb) 1 hr 3 hr 6 hr
6 hour
Temperature (ºF) Pressure Precipitation (in)